Time;durP1;ratioP1;P1;durP2;ratioP2;P2;SDS_P1;SDS_P2;PMS_P1;PMS_P2;Temp;Humidity;BMP_temperature;BMP_pressure;BME280_temperature;BME280_humidity;BME280_pressure;Samples;Min_cycle;Max_cycle;Signal;HPM_P1;HPM_P2
2022/03/30 00:01:55;;;;;;;30.45;7.60;;;;;;;;;;4944717;28;20080;-66
2022/03/30 00:04:21;;;;;;;32.33;7.55;;;;;;;;;;4945739;29;20121;-69
2022/03/30 00:06:47;;;;;;;25.10;7.55;;;;;;;;;;4944946;29;20031;-68
2022/03/30 00:09:12;;;;;;;28.70;7.70;;;;;;;;;;4945294;29;20042;-70
2022/03/30 00:11:38;;;;;;;24.13;6.97;;;;;;;;;;4944087;28;20043;-69
2022/03/30 00:14:04;;;;;;;34.10;7.60;;;;;;;;;;4945121;28;20138;-70
2022/03/30 00:16:29;;;;;;;24.27;8.25;;;;;;;;;;4944874;29;20063;-67
2022/03/30 00:18:54;;;;;;;38.40;8.02;;;;;;;;;;4945145;29;20042;-67
2022/03/30 00:21:20;;;;;;;25.88;8.77;;;;;;;;;;4944038;28;20075;-68
2022/03/30 00:23:45;;;;;;;31.02;7.47;;;;;;;;;;4944219;28;20093;-68
2022/03/30 00:26:11;;;;;;;33.85;7.10;;;;;;;;;;4944515;28;20492;-69
2022/03/30 00:28:36;;;;;;;35.83;8.93;;;;;;;;;;4945300;29;20714;-68
2022/03/30 00:31:02;;;;;;;24.98;7.03;;;;;;;;;;4944579;29;20087;-69
2022/03/30 00:33:27;;;;;;;21.92;7.05;;;;;;;;;;4944196;28;20031;-66
2022/03/30 00:35:53;;;;;;;30.50;7.32;;;;;;;;;;4944198;28;20074;-69
2022/03/30 00:38:19;;;;;;;33.92;7.93;;;;;;;;;;4927690;29;20031;-67
2022/03/30 00:40:45;;;;;;;36.38;7.18;;;;;;;;;;4944783;29;20046;-68
2022/03/30 00:43:10;;;;;;;25.23;7.50;;;;;;;;;;4942764;29;20039;-66
2022/03/30 00:45:36;;;;;;;28.70;7.30;;;;;;;;;;4944326;28;20181;-67
2022/03/30 00:48:02;;;;;;;32.15;7.07;;;;;;;;;;4944257;28;20471;-68
2022/03/30 00:50:28;;;;;;;23.50;6.70;;;;;;;;;;4944368;29;20035;-68
2022/03/30 00:52:56;;;;;;;29.58;6.78;;;;;;;;;;4943419;29;20038;-69
2022/03/30 00:55:23;;;;;;;29.73;7.20;;;;;;;;;;4943460;28;20061;-68
2022/03/30 00:57:51;;;;;;;23.35;6.68;;;;;;;;;;4944234;28;20139;-67
2022/03/30 01:00:16;;;;;;;21.80;6.82;;;;;;;;;;4943987;29;20042;-68
2022/03/30 01:02:44;;;;;;;27.17;7.40;;;;;;;;;;4944163;29;20451;-68
2022/03/30 01:05:11;;;;;;;23.63;6.63;;;;;;;;;;4943621;28;20053;-67
2022/03/30 01:07:36;;;;;;;19.70;6.03;;;;;;;;;;4944198;28;20067;-68
2022/03/30 01:10:04;;;;;;;29.73;7.93;;;;;;;;;;4943963;29;20042;-66
2022/03/30 01:12:32;;;;;;;31.30;6.80;;;;;;;;;;4944432;29;20042;-67
2022/03/30 01:14:59;;;;;;;27.33;6.85;;;;;;;;;;4943863;29;20043;-68
2022/03/30 01:17:25;;;;;;;32.15;9.52;;;;;;;;;;4943070;28;20861;-68
2022/03/30 01:19:50;;;;;;;28.88;7.25;;;;;;;;;;4939881;28;20484;-67
2022/03/30 01:22:16;;;;;;;22.00;7.93;;;;;;;;;;4943515;28;20035;-67
2022/03/30 01:24:41;;;;;;;31.90;9.18;;;;;;;;;;4944309;29;20493;-66
2022/03/30 01:27:07;;;;;;;27.05;7.53;;;;;;;;;;4943777;28;20035;-68
2022/03/30 01:32:28;;;;;;;25.08;7.70;;;;;;;;;;4943653;29;20210;-69
2022/03/30 01:34:56;;;;;;;20.95;7.65;;;;;;;;;;4943138;28;20407;-69
2022/03/30 01:37:23;;;;;;;31.88;8.05;;;;;;;;;;4942410;29;20046;-68
2022/03/30 01:39:48;;;;;;;26.33;7.78;;;;;;;;;;4943233;28;20084;-69
2022/03/30 01:42:14;;;;;;;43.50;8.43;;;;;;;;;;4943325;28;20143;-66
2022/03/30 01:44:39;;;;;;;30.95;8.45;;;;;;;;;;4943522;29;20035;-69
2022/03/30 01:47:05;;;;;;;23.13;7.55;;;;;;;;;;4943054;29;20072;-67
2022/03/30 01:49:31;;;;;;;24.35;7.93;;;;;;;;;;4942864;28;20039;-69
2022/03/30 01:51:58;;;;;;;36.30;8.63;;;;;;;;;;4943077;28;20051;-68
2022/03/30 01:54:26;;;;;;;28.60;8.95;;;;;;;;;;4943503;29;20404;-70
2022/03/30 01:56:54;;;;;;;26.33;9.05;;;;;;;;;;4943307;29;20031;-69
2022/03/30 01:59:21;;;;;;;27.85;7.95;;;;;;;;;;4943350;29;20384;-68
2022/03/30 02:01:47;;;;;;;15.05;7.63;;;;;;;;;;4942895;28;20042;-67
2022/03/30 02:04:12;;;;;;;27.05;8.05;;;;;;;;;;4943308;28;20039;-69
2022/03/30 02:06:38;;;;;;;18.65;8.30;;;;;;;;;;4942756;29;20197;-69
2022/03/30 02:09:05;;;;;;;24.60;8.32;;;;;;;;;;4943394;29;20043;-68
2022/03/30 02:11:31;;;;;;;20.55;7.90;;;;;;;;;;4942376;28;20031;-66
2022/03/30 02:13:56;;;;;;;27.52;7.68;;;;;;;;;;4925866;29;20073;-68
2022/03/30 02:16:23;;;;;;;23.10;8.25;;;;;;;;;;4942836;29;20088;-68
2022/03/30 02:18:48;;;;;;;24.58;8.38;;;;;;;;;;4943083;29;20043;-69
2022/03/30 02:21:15;;;;;;;29.33;8.65;;;;;;;;;;4942396;29;20391;-68
2022/03/30 02:23:42;;;;;;;21.17;8.20;;;;;;;;;;4943217;28;20054;-67
2022/03/30 02:26:08;;;;;;;29.05;8.95;;;;;;;;;;4943009;28;20078;-70
2022/03/30 02:28:33;;;;;;;25.25;8.13;;;;;;;;;;4943063;29;20130;-67
2022/03/30 02:30:59;;;;;;;26.50;9.07;;;;;;;;;;4942240;29;20143;-66
2022/03/30 02:33:25;;;;;;;27.05;9.15;;;;;;;;;;4942647;28;20034;-70
2022/03/30 02:35:51;;;;;;;27.17;7.03;;;;;;;;;;4942556;28;20138;-68
2022/03/30 02:38:17;;;;;;;27.52;7.90;;;;;;;;;;4942955;29;20032;-69
2022/03/30 02:40:43;;;;;;;20.90;8.23;;;;;;;;;;4942165;29;20416;-69
2022/03/30 02:43:09;;;;;;;20.88;7.70;;;;;;;;;;4942410;29;20047;-68
2022/03/30 02:45:34;;;;;;;28.42;7.65;;;;;;;;;;4942854;28;20042;-67
2022/03/30 02:48:18;;;;;;;31.58;7.57;;;;;;;;;;4946321;28;20105;-67
2022/03/30 02:50:51;;;;;;;30.80;8.02;;;;;;;;;;4946495;29;20154;-69
2022/03/30 02:53:17;;;;;;;27.33;7.57;;;;;;;;;;4946900;29;20110;-68
2022/03/30 02:55:43;;;;;;;33.42;8.05;;;;;;;;;;4945702;28;20031;-70
2022/03/30 02:58:10;;;;;;;30.85;8.43;;;;;;;;;;4946638;28;20027;-67
2022/03/30 03:00:36;;;;;;;25.40;7.75;;;;;;;;;;4946622;29;20034;-69
2022/03/30 03:03:03;;;;;;;21.98;7.45;;;;;;;;;;4946150;29;20496;-70
2022/03/30 03:05:32;;;;;;;27.52;8.43;;;;;;;;;;4945870;29;20070;-69
2022/03/30 03:08:15;;;;;;;24.92;7.50;;;;;;;;;;4946167;28;20478;-69
2022/03/30 03:10:43;;;;;;;18.48;7.03;;;;;;;;;;4946385;29;20046;-68
2022/03/30 03:13:09;;;;;;;28.75;8.18;;;;;;;;;;4946336;29;20663;-69
2022/03/30 03:15:36;;;;;;;29.92;7.93;;;;;;;;;;4946150;29;20126;-70
2022/03/30 03:18:03;;;;;;;20.90;7.00;;;;;;;;;;4945254;28;20089;-69
2022/03/30 03:20:30;;;;;;;22.63;7.43;;;;;;;;;;4943561;28;20456;-68
2022/03/30 03:22:57;;;;;;;25.52;7.10;;;;;;;;;;4945755;28;20094;-68
2022/03/30 03:25:22;;;;;;;31.02;8.13;;;;;;;;;;4945981;29;20106;-69
2022/03/30 03:27:48;;;;;;;29.48;8.38;;;;;;;;;;4945242;29;20051;-69
2022/03/30 03:30:14;;;;;;;37.53;7.63;;;;;;;;;;4945688;28;20524;-68
2022/03/30 03:32:41;;;;;;;26.40;7.72;;;;;;;;;;4946292;29;20042;-68
2022/03/30 03:35:09;;;;;;;36.75;8.20;;;;;;;;;;4925926;28;20133;-69
2022/03/30 03:37:38;;;;;;;41.28;8.40;;;;;;;;;;4928582;29;21054;-69
2022/03/30 03:40:05;;;;;;;42.22;7.85;;;;;;;;;;4944675;28;20047;-68
2022/03/30 03:42:31;;;;;;;23.00;8.00;;;;;;;;;;4945883;28;20117;-68
2022/03/30 03:44:57;;;;;;;35.08;8.20;;;;;;;;;;4945654;29;20039;-68
2022/03/30 03:47:22;;;;;;;29.63;8.23;;;;;;;;;;4946106;29;20031;-66
2022/03/30 03:49:48;;;;;;;27.90;8.30;;;;;;;;;;4944736;29;21024;-68
2022/03/30 03:52:13;;;;;;;26.30;7.47;;;;;;;;;;4945316;28;20039;-66
2022/03/30 03:54:38;;;;;;;21.38;7.93;;;;;;;;;;4945690;29;20081;-68
2022/03/30 03:57:04;;;;;;;27.25;9.32;;;;;;;;;;4927409;29;20047;-66
2022/03/30 03:59:30;;;;;;;30.33;9.57;;;;;;;;;;4944974;29;20058;-69
2022/03/30 04:01:55;;;;;;;31.00;8.07;;;;;;;;;;4944161;28;20039;-67
2022/03/30 04:04:20;;;;;;;21.85;7.57;;;;;;;;;;4945319;28;20082;-69
2022/03/30 04:06:46;;;;;;;23.73;8.27;;;;;;;;;;4944976;29;20049;-69
2022/03/30 04:09:11;;;;;;;22.60;8.15;;;;;;;;;;4941950;29;20127;-69
2022/03/30 04:11:37;;;;;;;24.27;8.38;;;;;;;;;;4943188;29;20126;-68
2022/03/30 04:14:03;;;;;;;31.23;8.00;;;;;;;;;;4944593;28;20043;-68
2022/03/30 04:16:29;;;;;;;23.85;7.68;;;;;;;;;;4944809;29;20114;-69
2022/03/30 04:18:54;;;;;;;29.40;7.45;;;;;;;;;;4943973;29;20031;-66
2022/03/30 04:21:20;;;;;;;51.83;9.32;;;;;;;;;;4943994;29;20073;-69
2022/03/30 04:23:45;;;;;;;30.45;8.25;;;;;;;;;;4943634;28;20039;-67
2022/03/30 04:26:11;;;;;;;31.92;8.77;;;;;;;;;;4943449;28;20780;-67
2022/03/30 04:28:40;;;;;;;39.67;9.57;;;;;;;;;;4944267;29;20142;-69
2022/03/30 04:31:11;;;;;;;25.75;7.82;;;;;;;;;;4943807;29;20122;-67
2022/03/30 04:33:37;;;;;;;25.92;8.57;;;;;;;;;;4943850;29;20504;-68
2022/03/30 04:36:04;;;;;;;31.55;8.45;;;;;;;;;;4944406;28;20465;-68
2022/03/30 04:38:30;;;;;;;29.48;9.13;;;;;;;;;;4944940;29;20027;-69
2022/03/30 04:40:55;;;;;;;32.80;8.98;;;;;;;;;;4944396;29;20388;-66
2022/03/30 04:43:21;;;;;;;33.17;8.77;;;;;;;;;;4944980;29;20031;-68
2022/03/30 04:45:46;;;;;;;20.42;8.07;;;;;;;;;;4944052;28;20054;-68
2022/03/30 04:48:12;;;;;;;18.27;8.50;;;;;;;;;;4944695;28;20039;-68
2022/03/30 04:50:37;;;;;;;33.67;11.00;;;;;;;;;;4944923;28;20039;-69
2022/03/30 04:53:03;;;;;;;25.70;7.93;;;;;;;;;;4945563;29;20058;-66
2022/03/30 04:55:28;;;;;;;28.95;8.95;;;;;;;;;;4951877;29;20039;-67
2022/03/30 04:57:54;;;;;;;35.55;9.40;;;;;;;;;;4948892;28;20027;-68
2022/03/30 05:00:19;;;;;;;31.15;9.10;;;;;;;;;;4944880;29;20122;-68
2022/03/30 05:02:45;;;;;;;19.23;9.25;;;;;;;;;;4943884;29;20046;-68
2022/03/30 05:05:10;;;;;;;27.77;9.13;;;;;;;;;;4944052;29;20039;-69
2022/03/30 05:07:36;;;;;;;22.52;8.60;;;;;;;;;;4941049;28;20067;-68
2022/03/30 05:10:05;;;;;;;33.53;9.52;;;;;;;;;;4943332;28;20043;-65
2022/03/30 05:12:31;;;;;;;34.35;9.65;;;;;;;;;;4943668;29;20507;-68
2022/03/30 05:14:56;;;;;;;33.17;8.20;;;;;;;;;;4942526;29;20043;-68
2022/03/30 05:17:22;;;;;;;35.83;9.82;;;;;;;;;;4943339;29;20542;-68
2022/03/30 05:19:48;;;;;;;34.83;9.98;;;;;;;;;;4943462;28;20031;-68
2022/03/30 05:22:14;;;;;;;30.60;9.68;;;;;;;;;;4943979;28;20063;-67
2022/03/30 05:24:40;;;;;;;21.25;9.50;;;;;;;;;;4943568;29;20461;-66
2022/03/30 05:27:06;;;;;;;22.52;8.63;;;;;;;;;;4944423;29;20117;-67
2022/03/30 05:29:31;;;;;;;29.55;10.35;;;;;;;;;;4942986;28;20058;-66
2022/03/30 05:31:57;;;;;;;27.77;9.65;;;;;;;;;;4944059;28;20039;-66
2022/03/30 05:34:24;;;;;;;35.45;9.82;;;;;;;;;;4943807;29;20829;-68
2022/03/30 05:36:49;;;;;;;27.13;10.30;;;;;;;;;;4943570;29;20039;-68
2022/03/30 05:39:15;;;;;;;28.67;9.95;;;;;;;;;;4943956;29;20134;-68
2022/03/30 05:41:40;;;;;;;44.00;10.13;;;;;;;;;;4942361;28;20600;-67
2022/03/30 05:44:06;;;;;;;27.33;9.75;;;;;;;;;;4943468;28;20042;-67
2022/03/30 05:46:31;;;;;;;27.98;9.90;;;;;;;;;;4942921;29;20050;-68
2022/03/30 05:48:57;;;;;;;23.92;9.70;;;;;;;;;;4943422;29;20062;-68
2022/03/30 05:51:23;;;;;;;24.50;10.30;;;;;;;;;;4938879;28;20095;-68
2022/03/30 05:53:49;;;;;;;21.92;9.77;;;;;;;;;;4941979;28;20046;-68
2022/03/30 05:56:17;;;;;;;21.50;8.98;;;;;;;;;;4943050;29;20039;-68
2022/03/30 05:58:43;;;;;;;19.08;9.10;;;;;;;;;;4943204;29;20046;-69
2022/03/30 06:01:08;;;;;;;33.42;9.68;;;;;;;;;;4942330;29;20039;-69
2022/03/30 06:03:37;;;;;;;35.35;9.60;;;;;;;;;;4942759;28;20447;-69
2022/03/30 06:06:06;;;;;;;23.75;9.10;;;;;;;;;;4942607;28;20074;-69
2022/03/30 06:08:32;;;;;;;27.40;9.88;;;;;;;;;;4943064;29;20039;-68
2022/03/30 06:10:57;;;;;;;29.52;8.68;;;;;;;;;;4943245;29;20043;-69
2022/03/30 06:13:22;;;;;;;20.13;9.07;;;;;;;;;;4941992;28;20493;-66
2022/03/30 06:15:48;;;;;;;22.70;8.80;;;;;;;;;;4941526;28;20118;-69
2022/03/30 06:18:14;;;;;;;23.75;9.25;;;;;;;;;;4940845;29;20565;-67
2022/03/30 06:20:40;;;;;;;22.33;8.13;;;;;;;;;;4941495;28;20433;-67
2022/03/30 06:23:05;;;;;;;25.80;9.10;;;;;;;;;;4944871;29;20094;-68
2022/03/30 06:25:32;;;;;;;21.45;9.40;;;;;;;;;;4945204;28;20055;-68
2022/03/30 06:27:58;;;;;;;29.02;8.55;;;;;;;;;;4944965;28;20127;-67
2022/03/30 06:30:24;;;;;;;17.35;8.45;;;;;;;;;;4945645;29;20419;-68
2022/03/30 06:32:51;;;;;;;19.98;8.45;;;;;;;;;;4947611;29;20039;-69
2022/03/30 06:35:18;;;;;;;28.85;10.57;;;;;;;;;;4945817;29;20031;-68
2022/03/30 06:37:44;;;;;;;16.40;8.65;;;;;;;;;;4946582;28;20121;-68
2022/03/30 06:40:11;;;;;;;20.38;9.07;;;;;;;;;;4929831;29;20039;-69
2022/03/30 06:42:38;;;;;;;17.88;8.93;;;;;;;;;;4945839;29;20101;-67
2022/03/30 06:45:06;;;;;;;22.77;9.50;;;;;;;;;;4946618;29;20043;-66
2022/03/30 06:47:32;;;;;;;22.13;8.93;;;;;;;;;;4946052;28;20397;-70
2022/03/30 06:49:57;;;;;;;14.98;8.25;;;;;;;;;;4945834;28;20040;-69
2022/03/30 06:52:24;;;;;;;20.20;9.25;;;;;;;;;;4946593;29;20051;-69
2022/03/30 06:54:49;;;;;;;21.88;8.52;;;;;;;;;;4946689;29;20043;-69
2022/03/30 06:57:14;;;;;;;21.33;8.80;;;;;;;;;;4946039;28;20046;-69
2022/03/30 06:59:40;;;;;;;20.23;7.95;;;;;;;;;;4945860;28;20619;-68
2022/03/30 07:02:06;;;;;;;21.15;7.97;;;;;;;;;;4946310;29;20055;-69
2022/03/30 07:04:31;;;;;;;25.40;9.10;;;;;;;;;;4946001;29;20027;-69
2022/03/30 07:12:25;;;;;;;21.55;9.13;;;;;;;;;;4946506;29;20043;-68
2022/03/30 07:14:50;;;;;;;18.73;7.90;;;;;;;;;;4946375;29;20038;-67
2022/03/30 07:17:16;;;;;;;15.95;8.82;;;;;;;;;;4945907;29;20046;-67
2022/03/30 07:19:43;;;;;;;20.92;8.93;;;;;;;;;;4945308;28;20051;-68
2022/03/30 07:22:10;;;;;;;24.40;8.80;;;;;;;;;;4937382;28;20046;-67
2022/03/30 07:24:36;;;;;;;21.02;9.35;;;;;;;;;;4944393;29;20185;-68
2022/03/30 07:27:02;;;;;;;26.92;10.52;;;;;;;;;;4925829;29;20500;-68
2022/03/30 07:29:27;;;;;;;29.20;9.57;;;;;;;;;;4944087;29;20067;-68
2022/03/30 07:31:53;;;;;;;21.77;9.38;;;;;;;;;;4943045;28;20035;-69
2022/03/30 07:34:18;;;;;;;22.88;9.55;;;;;;;;;;4944399;29;20047;-69
2022/03/30 07:36:44;;;;;;;24.90;7.90;;;;;;;;;;4941925;29;20047;-69
2022/03/30 07:39:09;;;;;;;24.17;7.60;;;;;;;;;;4944427;29;20043;-69
2022/03/30 07:41:35;;;;;;;24.02;7.82;;;;;;;;;;4926126;29;20035;-69
2022/03/30 07:44:00;;;;;;;23.27;8.20;;;;;;;;;;4944847;28;20497;-68
2022/03/30 07:46:26;;;;;;;23.30;8.32;;;;;;;;;;4945087;29;20090;-69
2022/03/30 07:48:51;;;;;;;22.67;7.40;;;;;;;;;;4938703;28;20499;-69
2022/03/30 07:51:17;;;;;;;32.22;8.95;;;;;;;;;;4942637;28;20034;-68
2022/03/30 07:53:42;;;;;;;22.35;8.82;;;;;;;;;;4941840;28;20046;-68
2022/03/30 07:56:08;;;;;;;23.63;9.48;;;;;;;;;;4944485;28;20091;-69
2022/03/30 07:58:33;;;;;;;21.35;8.25;;;;;;;;;;4943072;29;20442;-69
2022/03/30 08:00:58;;;;;;;17.98;7.82;;;;;;;;;;4926771;29;20755;-68
2022/03/30 08:03:24;;;;;;;26.55;8.60;;;;;;;;;;4941785;28;20046;-69
2022/03/30 08:05:49;;;;;;;29.08;8.95;;;;;;;;;;4943745;28;20043;-68
2022/03/30 08:08:15;;;;;;;30.08;8.70;;;;;;;;;;4941164;29;20042;-68
2022/03/30 08:10:40;;;;;;;27.50;7.65;;;;;;;;;;4939548;29;20041;-68
2022/03/30 08:13:06;;;;;;;29.15;6.43;;;;;;;;;;4937799;29;20039;-68
2022/03/30 08:15:32;;;;;;;23.92;6.82;;;;;;;;;;4938668;28;20039;-68
2022/03/30 08:17:58;;;;;;;28.10;6.22;;;;;;;;;;4938639;28;20058;-67
2022/03/30 08:23:10;;;;;;;32.47;6.25;;;;;;;;;;4938796;29;20042;-68
2022/03/30 08:25:35;;;;;;;32.20;7.25;;;;;;;;;;4938292;28;20141;-69
2022/03/30 08:28:02;;;;;;;23.05;6.43;;;;;;;;;;4937813;28;20401;-68
2022/03/30 08:30:28;;;;;;;35.50;6.30;;;;;;;;;;4938634;29;20082;-69
2022/03/30 08:32:54;;;;;;;30.88;6.63;;;;;;;;;;4937480;28;20565;-69
2022/03/30 08:35:21;;;;;;;29.33;6.45;;;;;;;;;;4920310;29;20047;-68
2022/03/30 08:37:46;;;;;;;24.23;5.60;;;;;;;;;;4921427;29;20263;-68
2022/03/30 08:40:12;;;;;;;21.38;6.53;;;;;;;;;;4938523;28;20861;-68
2022/03/30 08:42:40;;;;;;;26.48;6.18;;;;;;;;;;4938909;29;20493;-69
2022/03/30 08:45:07;;;;;;;32.33;6.22;;;;;;;;;;4941366;28;20130;-69
2022/03/30 08:47:33;;;;;;;28.63;6.30;;;;;;;;;;4940762;28;20079;-68
2022/03/30 08:49:59;;;;;;;33.10;6.28;;;;;;;;;;4937273;28;20397;-68
2022/03/30 08:52:24;;;;;;;31.45;5.93;;;;;;;;;;4938809;29;20047;-67
2022/03/30 08:54:51;;;;;;;40.85;6.63;;;;;;;;;;4921278;29;20027;-67
2022/03/30 08:57:17;;;;;;;30.80;5.28;;;;;;;;;;4936744;29;20027;-67
2022/03/30 09:00:09;;;;;;;25.25;6.18;;;;;;;;;;4939284;28;21301;-68
2022/03/30 09:02:43;;;;;;;34.92;6.45;;;;;;;;;;4902192;29;1077730;-68
2022/03/30 09:05:14;;;;;;;36.85;6.45;;;;;;;;;;4938624;29;20039;-68
2022/03/30 09:07:42;;;;;;;37.72;6.40;;;;;;;;;;4938820;29;20031;-68
2022/03/30 09:10:15;;;;;;;34.78;6.03;;;;;;;;;;4939126;28;20050;-68
2022/03/30 09:12:42;;;;;;;33.97;5.72;;;;;;;;;;4942672;28;20580;-68
2022/03/30 09:15:08;;;;;;;36.70;6.55;;;;;;;;;;4943175;29;20035;-68
2022/03/30 09:17:38;;;;;;;30.98;5.97;;;;;;;;;;4943938;29;21013;-67
2022/03/30 09:20:13;;;;;;;33.55;6.50;;;;;;;;;;4942201;29;20027;-68
2022/03/30 09:22:44;;;;;;;28.83;6.10;;;;;;;;;;4943026;28;20046;-67
2022/03/30 09:25:11;;;;;;;31.15;5.43;;;;;;;;;;4943236;29;20035;-68
2022/03/30 09:27:41;;;;;;;24.20;5.43;;;;;;;;;;4943166;29;20061;-66
2022/03/30 09:30:12;;;;;;;28.63;6.20;;;;;;;;;;4939365;28;20130;-68
2022/03/30 09:32:40;;;;;;;31.02;5.85;;;;;;;;;;4938723;28;20845;-69
2022/03/30 09:35:27;;;;;;;30.13;5.18;;;;;;;;;;4942739;28;20126;-68
2022/03/30 09:38:20;;;;;;;27.40;6.10;;;;;;;;;;4943534;29;20038;-67
2022/03/30 09:40:53;;;;;;;29.77;5.50;;;;;;;;;;4941261;29;20509;-69
2022/03/30 09:43:39;;;;;;;32.55;6.50;;;;;;;;;;4942623;28;20039;-68
2022/03/30 09:46:11;;;;;;;27.42;6.45;;;;;;;;;;4943007;28;20066;-67
2022/03/30 09:48:49;;;;;;;34.17;7.05;;;;;;;;;;4942422;29;20053;-66
2022/03/30 09:51:16;;;;;;;39.75;6.60;;;;;;;;;;4942909;28;20031;-67
2022/03/30 09:53:42;;;;;;;21.92;5.43;;;;;;;;;;4942396;28;20027;-67
2022/03/30 09:56:19;;;;;;;22.92;6.25;;;;;;;;;;4943223;28;20130;-66
2022/03/30 09:58:46;;;;;;;32.72;6.63;;;;;;;;;;4925930;29;20675;-67
2022/03/30 10:01:11;;;;;;;34.50;6.03;;;;;;;;;;4942960;29;20070;-66
2022/03/30 10:03:43;;;;;;;22.33;5.72;;;;;;;;;;4942108;29;20180;-67
2022/03/30 10:06:13;;;;;;;35.55;6.07;;;;;;;;;;4943075;28;20035;-67
2022/03/30 10:08:40;;;;;;;27.52;4.95;;;;;;;;;;4943586;29;20130;-66
2022/03/30 10:11:05;;;;;;;27.75;5.65;;;;;;;;;;4942677;29;20114;-67
2022/03/30 10:13:31;;;;;;;25.38;6.15;;;;;;;;;;4943368;29;20142;-68
2022/03/30 10:15:58;;;;;;;25.85;4.82;;;;;;;;;;4941830;28;20038;-67
2022/03/30 10:18:24;;;;;;;31.38;5.85;;;;;;;;;;4942315;28;20073;-67
2022/03/30 10:21:03;;;;;;;29.02;6.30;;;;;;;;;;4942910;29;20035;-67
2022/03/30 10:23:45;;;;;;;31.80;6.85;;;;;;;;;;4943470;29;20141;-68
2022/03/30 10:26:49;;;;;;;30.25;5.40;;;;;;;;;;4942147;29;20058;-67
2022/03/30 10:29:16;;;;;;;27.52;5.55;;;;;;;;;;4942853;28;20086;-68
2022/03/30 10:31:43;;;;;;;28.52;5.55;;;;;;;;;;4942657;29;20062;-69
2022/03/30 10:34:25;;;;;;;21.67;5.82;;;;;;;;;;4942529;29;20038;-68
2022/03/30 10:37:09;;;;;;;25.23;5.93;;;;;;;;;;4937614;28;20050;-67
2022/03/30 10:39:52;;;;;;;37.90;6.43;;;;;;;;;;4942033;28;20052;-68
2022/03/30 10:42:18;;;;;;;34.65;6.35;;;;;;;;;;4941974;29;20475;-67
2022/03/30 10:44:49;;;;;;;25.73;7.22;;;;;;;;;;4942218;29;20540;-67
2022/03/30 10:47:23;;;;;;;20.90;5.43;;;;;;;;;;4942101;29;20118;-68
2022/03/30 10:49:57;;;;;;;36.22;6.85;;;;;;;;;;4942420;28;20620;-68
2022/03/30 10:52:49;;;;;;;28.48;6.60;;;;;;;;;;4925349;29;20183;-66
2022/03/30 10:55:14;;;;;;;33.05;6.78;;;;;;;;;;4939351;29;20075;-68
2022/03/30 10:57:44;;;;;;;27.17;5.82;;;;;;;;;;4942716;29;20035;-67
2022/03/30 11:00:18;;;;;;;30.58;6.40;;;;;;;;;;4942029;28;20028;-68
2022/03/30 11:02:44;;;;;;;26.80;5.97;;;;;;;;;;4942784;28;20043;-67
2022/03/30 11:05:12;;;;;;;29.70;6.90;;;;;;;;;;4942518;29;20035;-66
2022/03/30 11:07:38;;;;;;;21.60;5.80;;;;;;;;;;4943420;28;20071;-66
2022/03/30 11:10:16;;;;;;;35.97;6.40;;;;;;;;;;4945048;28;20182;-67
2022/03/30 11:13:03;;;;;;;17.38;4.97;;;;;;;;;;4949360;28;20046;-67
2022/03/30 11:15:30;;;;;;;26.63;5.80;;;;;;;;;;4948785;29;20043;-67
2022/03/30 11:18:15;;;;;;;27.55;6.93;;;;;;;;;;4939315;28;20142;-68
2022/03/30 11:20:41;;;;;;;29.40;6.78;;;;;;;;;;4944004;28;20051;-67
2022/03/30 11:23:20;;;;;;;38.53;6.75;;;;;;;;;;4944189;28;20039;-69
2022/03/30 11:25:52;;;;;;;33.03;6.72;;;;;;;;;;4943740;29;20043;-68
2022/03/30 11:28:17;;;;;;;;;;;;;;;;;;4944085;29;20042;-69
2022/03/30 11:30:45;;;;;;;31.75;8.23;;;;;;;;;;4943244;29;19919;-68
2022/03/30 11:33:22;;;;;;;27.75;7.05;;;;;;;;;;4944197;28;20058;-68
2022/03/30 11:35:49;;;;;;;26.65;6.55;;;;;;;;;;4944601;28;20062;-68
2022/03/30 11:38:32;;;;;;;38.70;6.53;;;;;;;;;;4944753;29;20842;-66
2022/03/30 11:41:02;;;;;;;17.95;6.63;;;;;;;;;;4927490;29;20484;-68
2022/03/30 11:43:28;;;;;;;32.72;6.57;;;;;;;;;;4943705;28;20069;-68
2022/03/30 11:45:53;;;;;;;31.27;6.90;;;;;;;;;;4944222;28;20102;-68
2022/03/30 11:48:19;;;;;;;33.08;7.68;;;;;;;;;;4944996;29;20664;-69
2022/03/30 11:50:56;;;;;;;28.15;5.45;;;;;;;;;;4944603;29;20126;-67
2022/03/30 11:53:26;;;;;;;23.48;5.88;;;;;;;;;;4944202;29;20070;-67
2022/03/30 11:55:54;;;;;;;24.58;5.75;;;;;;;;;;4944459;28;20039;-67
2022/03/30 11:58:32;;;;;;;27.20;5.82;;;;;;;;;;4943906;29;20047;-68
2022/03/30 12:01:03;;;;;;;22.65;5.30;;;;;;;;;;4943918;28;20062;-69
2022/03/30 12:03:29;;;;;;;23.73;4.78;;;;;;;;;;4944830;29;20039;-68
2022/03/30 12:06:00;;;;;;;21.10;5.22;;;;;;;;;;4943313;28;20035;-68
2022/03/30 12:08:27;;;;;;;25.90;6.73;;;;;;;;;;4943974;28;20123;-67
2022/03/30 12:11:02;;;;;;;20.88;5.40;;;;;;;;;;4944319;29;20181;-68
2022/03/30 12:13:28;;;;;;;33.10;5.85;;;;;;;;;;4943903;29;20038;-68
2022/03/30 12:16:07;;;;;;;28.15;6.40;;;;;;;;;;4942947;28;20115;-66
2022/03/30 12:18:46;;;;;;;27.35;6.30;;;;;;;;;;4941159;28;20489;-68
2022/03/30 12:21:14;;;;;;;16.67;5.57;;;;;;;;;;4942904;28;21095;-68
2022/03/30 12:23:54;;;;;;;14.45;5.07;;;;;;;;;;4944017;29;20130;-67
2022/03/30 12:26:20;;;;;;;29.55;5.68;;;;;;;;;;4943414;29;20030;-68
2022/03/30 12:28:45;;;;;;;24.02;5.85;;;;;;;;;;4939170;28;20039;-67
2022/03/30 12:31:13;;;;;;;19.02;4.50;;;;;;;;;;4941488;28;20047;-67
2022/03/30 12:33:50;;;;;;;23.63;5.78;;;;;;;;;;4940845;29;20070;-67
2022/03/30 12:36:20;;;;;;;29.60;5.75;;;;;;;;;;4940846;28;20521;-67
2022/03/30 12:38:49;;;;;;;22.70;5.68;;;;;;;;;;4940484;28;20039;-67
2022/03/30 12:41:25;;;;;;;24.77;5.32;;;;;;;;;;4940011;28;20066;-68
2022/03/30 12:43:58;;;;;;;24.48;5.70;;;;;;;;;;4941247;28;20082;-67
2022/03/30 12:46:24;;;;;;;19.38;5.38;;;;;;;;;;4942667;28;20039;-68
2022/03/30 12:48:49;;;;;;;35.30;5.85;;;;;;;;;;4943276;28;20043;-68
2022/03/30 12:51:19;;;;;;;25.48;6.03;;;;;;;;;;4943442;29;20035;-68
2022/03/30 12:53:48;;;;;;;30.00;6.30;;;;;;;;;;4943430;29;20118;-67
2022/03/30 12:56:17;;;;;;;22.30;5.40;;;;;;;;;;4942452;29;21447;-69
2022/03/30 12:58:54;;;;;;;38.05;6.55;;;;;;;;;;4942373;28;20023;-67
2022/03/30 13:01:34;;;;;;;33.20;5.72;;;;;;;;;;4942601;29;20484;-67
2022/03/30 13:04:00;;;;;;;25.13;5.93;;;;;;;;;;4939390;28;20393;-68
2022/03/30 13:06:25;;;;;;;22.48;5.60;;;;;;;;;;4941768;28;20827;-67
2022/03/30 13:09:12;;;;;;;20.50;5.43;;;;;;;;;;4942514;28;20067;-68
2022/03/30 13:11:42;;;;;;;25.67;6.30;;;;;;;;;;4942153;29;20046;-68
2022/03/30 13:14:16;;;;;;;21.50;6.88;;;;;;;;;;4925171;29;20556;-68
2022/03/30 13:16:42;;;;;;;30.55;6.03;;;;;;;;;;4942195;29;20035;-67
2022/03/30 13:19:11;;;;;;;28.67;6.30;;;;;;;;;;4943010;28;20042;-68
2022/03/30 13:21:40;;;;;;;29.25;7.00;;;;;;;;;;4942573;28;20039;-67
2022/03/30 13:24:12;;;;;;;28.98;7.30;;;;;;;;;;4943251;29;20057;-67
2022/03/30 13:26:40;;;;;;;32.00;6.93;;;;;;;;;;4944227;29;20034;-68
2022/03/30 13:29:07;;;;;;;21.17;6.45;;;;;;;;;;4942667;28;20873;-68
2022/03/30 13:31:36;;;;;;;22.25;6.75;;;;;;;;;;4943730;28;20085;-66
2022/03/30 13:34:01;;;;;;;34.85;8.52;;;;;;;;;;4942876;29;20042;-68
2022/03/30 13:36:27;;;;;;;23.88;7.65;;;;;;;;;;4943161;29;20125;-67
2022/03/30 13:38:54;;;;;;;29.35;7.13;;;;;;;;;;4943473;29;20023;-67
2022/03/30 13:41:20;;;;;;;24.33;6.20;;;;;;;;;;4942758;28;20039;-69
2022/03/30 13:43:48;;;;;;;23.83;7.05;;;;;;;;;;4943119;28;20449;-66
2022/03/30 13:46:14;;;;;;;24.88;6.95;;;;;;;;;;4943469;29;20031;-65
2022/03/30 13:48:40;;;;;;;24.02;7.40;;;;;;;;;;4943326;29;20070;-65
2022/03/30 13:51:06;;;;;;;25.90;7.88;;;;;;;;;;4942274;28;20170;-69
2022/03/30 13:53:36;;;;;;;30.70;7.47;;;;;;;;;;4943419;28;20084;-68
2022/03/30 13:56:03;;;;;;;21.02;6.85;;;;;;;;;;4943411;29;20053;-68
2022/03/30 13:58:30;;;;;;;28.67;8.02;;;;;;;;;;4943479;29;20059;-69
2022/03/30 14:00:57;;;;;;;21.55;6.95;;;;;;;;;;4943219;29;20031;-69
2022/03/30 14:03:22;;;;;;;25.67;7.55;;;;;;;;;;4942552;28;20035;-68
2022/03/30 14:05:48;;;;;;;24.52;7.30;;;;;;;;;;4942494;29;20093;-67
2022/03/30 14:08:14;;;;;;;23.27;6.95;;;;;;;;;;4943105;29;20120;-66
2022/03/30 14:10:40;;;;;;;27.02;7.82;;;;;;;;;;4942879;28;20058;-70
2022/03/30 14:13:06;;;;;;;25.02;7.05;;;;;;;;;;4942047;28;20584;-69
2022/03/30 14:15:32;;;;;;;26.67;7.32;;;;;;;;;;4942341;28;20039;-69
2022/03/30 14:17:59;;;;;;;23.08;7.72;;;;;;;;;;4942585;29;20035;-70
2022/03/30 14:20:24;;;;;;;21.42;8.25;;;;;;;;;;4943046;29;20041;-68
2022/03/30 14:22:50;;;;;;;28.45;8.20;;;;;;;;;;4943548;29;20400;-70
2022/03/30 14:25:16;;;;;;;23.73;8.95;;;;;;;;;;4941668;28;20035;-67
2022/03/30 14:27:43;;;;;;;24.80;8.38;;;;;;;;;;4941999;28;20042;-69
2022/03/30 14:30:09;;;;;;;29.08;8.18;;;;;;;;;;4942202;29;20054;-68
2022/03/30 14:32:36;;;;;;;19.75;7.90;;;;;;;;;;4942991;29;20035;-67
2022/03/30 14:35:03;;;;;;;16.88;7.03;;;;;;;;;;4941589;28;20611;-68
2022/03/30 14:37:31;;;;;;;22.33;8.50;;;;;;;;;;4942086;28;20035;-68
2022/03/30 14:39:57;;;;;;;31.75;8.90;;;;;;;;;;4942485;29;20381;-67
2022/03/30 14:42:23;;;;;;;25.38;8.60;;;;;;;;;;4944113;28;20031;-69
2022/03/30 14:44:48;;;;;;;20.67;9.00;;;;;;;;;;4946705;29;20042;-69
2022/03/30 14:47:14;;;;;;;26.83;10.30;;;;;;;;;;4945403;28;20058;-69